createdAt,value
2018-05-06T00:02:03.355Z,4.73
2018-05-06T00:04:54.372Z,5.07
2018-05-06T00:07:22.429Z,5.47
2018-05-06T00:09:56.748Z,5.03
2018-05-06T00:12:24.932Z,4.90
2018-05-06T00:14:57.721Z,4.80
2018-05-06T00:17:25.821Z,4.47
2018-05-06T00:19:55.849Z,4.87
2018-05-06T00:22:31.589Z,4.60
2018-05-06T00:25:00.432Z,4.80
2018-05-06T00:27:30.749Z,4.23
2018-05-06T00:29:58.829Z,4.50
2018-05-06T00:32:26.920Z,4.17
2018-05-06T00:34:56.933Z,4.57
2018-05-06T00:37:25.034Z,4.47
2018-05-06T00:39:56.705Z,4.07
2018-05-06T00:42:26.721Z,4.40
2018-05-06T00:44:54.821Z,4.37
2018-05-06T00:47:22.909Z,4.40
2018-05-06T00:49:52.006Z,4.57
2018-05-06T00:52:20.089Z,4.63
2018-05-06T00:54:51.446Z,4.90
2018-05-06T00:57:20.553Z,5.70
2018-05-06T00:59:48.708Z,4.20
2018-05-06T01:02:17.565Z,4.17
2018-05-06T01:04:46.942Z,3.97
2018-05-06T01:07:16.814Z,4.57
2018-05-06T01:09:48.026Z,4.40
2018-05-06T01:12:16.109Z,3.10
2018-05-06T01:14:44.958Z,4.30
2018-05-06T01:20:14.522Z,4.30
2018-05-06T01:22:42.619Z,4.57
2018-05-06T01:25:20.234Z,3.90
2018-05-06T01:27:48.331Z,4.77
2018-05-06T01:30:18.089Z,4.73
2018-05-06T01:32:47.136Z,5.67
2018-05-06T01:35:15.200Z,4.60
2018-05-06T01:37:43.307Z,4.93
2018-05-06T01:40:11.390Z,4.67
2018-05-06T01:42:40.262Z,4.60
2018-05-06T01:45:08.345Z,4.60
2018-05-06T01:47:36.442Z,4.27
2018-05-06T01:50:04.504Z,4.50
2018-05-06T01:52:39.601Z,4.40
2018-05-06T01:55:07.759Z,4.30
2018-05-06T01:57:35.856Z,4.63
2018-05-06T02:00:04.907Z,4.40
2018-05-06T02:02:33.905Z,4.13
2018-05-06T02:05:12.394Z,4.53
2018-05-06T02:07:41.436Z,4.50
2018-05-06T02:10:10.283Z,4.63
2018-05-06T02:12:38.386Z,4.63
2018-05-06T02:15:06.458Z,4.40
2018-05-06T02:20:34.754Z,4.90
2018-05-06T02:23:04.821Z,4.00
2018-05-06T02:25:36.119Z,4.20
2018-05-06T02:28:16.571Z,3.63
2018-05-06T02:30:46.625Z,3.90
2018-05-06T02:33:16.652Z,3.57
2018-05-06T02:35:44.731Z,4.03
2018-05-06T02:38:13.583Z,3.90
2018-05-06T02:40:53.982Z,4.40
2018-05-06T02:43:22.076Z,3.87
2018-05-06T02:45:50.155Z,3.90
2018-05-06T02:48:19.193Z,3.80
2018-05-06T02:50:49.221Z,3.53
2018-05-06T02:53:17.308Z,3.93
2018-05-06T02:55:45.384Z,3.77
2018-05-06T02:58:15.303Z,3.87
2018-05-06T03:00:44.143Z,3.63
2018-05-06T03:03:12.232Z,4.40
2018-05-06T03:05:51.518Z,4.30
2018-05-06T03:08:19.589Z,3.70
2018-05-06T03:10:47.675Z,4.20
2018-05-06T03:13:21.498Z,3.90
2018-05-06T03:16:01.261Z,4.23
2018-05-06T03:18:29.411Z,4.10
2018-05-06T03:21:08.792Z,4.13
2018-05-06T03:23:36.896Z,4.07
2018-05-06T03:26:04.979Z,3.77
2018-05-06T03:28:35.772Z,3.97
2018-05-06T03:31:08.828Z,3.77
2018-05-06T03:33:48.900Z,4.47
2018-05-06T03:36:17.740Z,4.23
2018-05-06T03:38:53.343Z,4.70
2018-05-06T03:41:22.384Z,4.30
2018-05-06T03:44:00.875Z,4.10
2018-05-06T03:46:30.164Z,4.90
2018-05-06T03:48:59.221Z,3.90
2018-05-06T03:51:31.395Z,4.70
2018-05-06T03:54:01.231Z,4.80
2018-05-06T03:59:53.245Z,3.70
2018-05-06T04:02:37.959Z,3.73
2018-05-06T04:05:31.444Z,3.50
2018-05-06T04:07:59.518Z,3.67
2018-05-06T04:10:28.562Z,3.50
2018-05-06T04:12:56.651Z,3.30
2018-05-06T04:15:24.733Z,3.67
2018-05-06T04:18:13.661Z,3.57
2018-05-06T04:20:47.325Z,4.07
2018-05-06T04:23:16.324Z,3.00
2018-05-06T04:25:47.689Z,3.80
2018-05-06T04:28:16.664Z,3.30
2018-05-06T04:31:09.021Z,3.13
2018-05-06T04:33:48.320Z,3.67
2018-05-06T04:36:18.317Z,3.20
2018-05-06T04:38:50.115Z,3.53
2018-05-06T04:41:22.738Z,3.70
2018-05-06T04:43:57.184Z,3.23
2018-05-06T04:46:25.357Z,4.23
2018-05-06T04:48:57.990Z,4.20
2018-05-06T04:51:26.976Z,3.77
2018-05-06T04:53:55.073Z,4.37
2018-05-06T04:56:23.168Z,3.60
2018-05-06T04:58:53.184Z,3.90
2018-05-06T05:01:22.232Z,3.50
2018-05-06T05:03:54.595Z,3.40
2018-05-06T05:06:39.972Z,2.97
2018-05-06T05:09:11.350Z,3.23
2018-05-06T05:11:39.549Z,2.83
2018-05-06T05:14:08.632Z,3.07
2018-05-06T05:16:37.635Z,3.60
2018-05-06T05:19:11.479Z,3.33
2018-05-06T05:24:39.332Z,3.50
2018-05-06T05:27:07.410Z,3.23
2018-05-06T05:29:37.270Z,2.77
2018-05-06T05:32:23.012Z,2.83
2018-05-06T05:34:53.644Z,2.40
2018-05-06T05:37:29.924Z,2.90
2018-05-06T05:39:57.955Z,2.43
2018-05-06T05:42:26.815Z,2.70
2018-05-06T05:44:55.989Z,2.90
2018-05-06T05:47:24.819Z,3.00
2018-05-06T05:49:57.305Z,2.87
2018-05-06T05:52:26.412Z,2.97
2018-05-06T05:54:56.240Z,3.03
2018-05-06T05:57:25.328Z,2.80
2018-05-06T05:59:54.829Z,2.67
2018-05-06T06:02:23.972Z,3.10
2018-05-06T06:04:52.101Z,3.53
2018-05-06T06:07:21.127Z,2.90
2018-05-06T06:09:50.096Z,3.13
2018-05-06T06:12:18.169Z,3.77
2018-05-06T06:14:48.249Z,3.10
2018-05-06T06:17:16.331Z,2.97
2018-05-06T06:19:45.572Z,3.27
2018-05-06T06:22:20.315Z,3.20
2018-05-06T06:24:49.392Z,2.90
2018-05-06T06:27:17.548Z,3.27
2018-05-06T06:29:47.498Z,3.43
2018-05-06T06:32:20.313Z,3.27
2018-05-06T06:34:56.764Z,4.17
2018-05-06T06:37:25.654Z,3.00
2018-05-06T06:39:53.736Z,3.03
2018-05-06T06:42:22.584Z,3.10
2018-05-06T06:44:50.680Z,3.00
2018-05-06T06:47:19.769Z,3.00
2018-05-06T06:49:48.910Z,3.40
2018-05-06T06:52:18.037Z,2.63
2018-05-06T06:54:46.133Z,3.03
2018-05-06T06:57:15.206Z,2.80
2018-05-06T06:59:44.302Z,3.00
2018-05-06T07:02:24.447Z,3.20
2018-05-06T07:04:54.469Z,2.60
2018-05-06T07:07:22.566Z,2.93
2018-05-06T07:09:50.686Z,3.00
2018-05-06T07:12:18.798Z,2.73
2018-05-06T07:14:46.881Z,3.23
2018-05-06T07:17:20.049Z,2.37
2018-05-06T07:19:49.024Z,2.77
2018-05-06T07:22:17.112Z,2.83
2018-05-06T07:24:45.176Z,2.60
2018-05-06T07:27:18.993Z,2.37
2018-05-06T07:29:47.932Z,2.97
2018-05-06T07:32:16.042Z,3.10
2018-05-06T07:34:44.136Z,2.50
2018-05-06T07:37:13.173Z,2.73
2018-05-06T07:39:42.237Z,3.20
2018-05-06T07:42:10.323Z,2.47
2018-05-06T07:44:40.739Z,3.20
2018-05-06T07:47:11.968Z,2.67
2018-05-06T07:49:40.977Z,2.60
2018-05-06T07:52:09.065Z,2.80
2018-05-06T07:54:37.189Z,2.70
2018-05-06T07:57:10.743Z,3.27
2018-05-06T07:59:38.879Z,2.67
2018-05-06T08:02:07.017Z,3.00
2018-05-06T08:04:35.132Z,2.93
2018-05-06T08:07:06.865Z,2.97
2018-05-06T08:09:34.987Z,2.90
2018-05-06T08:12:03.085Z,2.93
2018-05-06T08:14:31.157Z,3.00
2018-05-06T08:16:59.257Z,2.47
2018-05-06T08:19:29.387Z,2.90
2018-05-06T08:21:57.541Z,2.80
2018-05-06T08:24:25.685Z,2.50
2018-05-06T08:27:07.769Z,2.80
2018-05-06T08:29:35.925Z,2.30
2018-05-06T08:32:04.070Z,2.70
2018-05-06T08:34:33.058Z,2.20
2018-05-06T08:37:01.195Z,2.40
2018-05-06T08:39:34.063Z,2.00
2018-05-06T08:42:02.949Z,2.10
2018-05-06T08:44:34.521Z,2.10
2018-05-06T08:47:02.619Z,2.50
2018-05-06T08:49:31.657Z,1.90
2018-05-06T08:51:59.781Z,1.63
2018-05-06T08:54:27.910Z,2.17
2018-05-06T08:56:56.016Z,1.60
2018-05-06T08:59:24.131Z,2.00
2018-05-06T09:01:53.221Z,2.13
2018-05-06T09:04:21.388Z,4.83
2018-05-06T09:06:50.395Z,1.83
2018-05-06T09:09:18.485Z,2.10
2018-05-06T09:11:46.652Z,1.80
2018-05-06T09:14:14.721Z,2.03
2018-05-06T09:16:42.816Z,2.00
2018-05-06T09:19:10.936Z,1.77
2018-05-06T09:21:40.946Z,1.70
2018-05-06T09:24:09.091Z,2.07
2018-05-06T09:26:38.793Z,1.80
2018-05-06T09:29:06.950Z,1.90
2018-05-06T09:31:36.065Z,1.80
2018-05-06T09:34:04.196Z,1.53
2018-05-06T09:36:37.842Z,2.07
2018-05-06T09:39:11.966Z,1.90
2018-05-06T09:41:41.581Z,1.70
2018-05-06T09:44:12.451Z,2.00
2018-05-06T09:46:44.089Z,1.63
2018-05-06T09:49:14.924Z,1.70
2018-05-06T09:51:43.038Z,1.80
2018-05-06T09:54:12.094Z,1.50
2018-05-06T09:56:40.164Z,1.70
2018-05-06T09:59:08.867Z,1.50
2018-05-06T10:01:36.965Z,1.43
2018-05-06T10:04:05.068Z,1.70
2018-05-06T10:06:33.923Z,1.30
2018-05-06T10:09:02.140Z,1.50
2018-05-06T10:11:30.217Z,1.70
2018-05-06T10:13:59.962Z,1.60
2018-05-06T10:16:29.037Z,1.70
2018-05-06T10:18:57.166Z,1.30
2018-05-06T10:21:26.010Z,1.40
2018-05-06T10:23:54.204Z,1.50
2018-05-06T10:26:26.245Z,1.93
2018-05-06T10:28:55.523Z,1.90
2018-05-06T10:31:24.373Z,1.27
2018-05-06T10:33:53.517Z,1.40
2018-05-06T10:36:24.224Z,1.40
2018-05-06T10:39:00.062Z,1.80
2018-05-06T10:41:31.228Z,1.20
2018-05-06T10:43:59.447Z,1.23
2018-05-06T10:46:29.461Z,1.30
2018-05-06T10:48:57.730Z,1.00
2018-05-06T10:51:27.596Z,1.20
2018-05-06T10:53:56.689Z,1.10
2018-05-06T10:56:24.798Z,1.20
2018-05-06T10:58:57.829Z,0.80
2018-05-06T11:01:25.994Z,0.80
2018-05-06T11:03:54.152Z,0.90
2018-05-06T11:06:24.461Z,0.70
2018-05-06T11:08:52.589Z,0.80
2018-05-06T11:11:20.735Z,1.07
2018-05-06T11:13:50.064Z,0.93
2018-05-06T11:16:18.957Z,1.00
2018-05-06T11:18:48.136Z,1.00
2018-05-06T11:21:17.381Z,0.90
2018-05-06T11:23:45.498Z,0.87
2018-05-06T11:26:14.200Z,0.70
2018-05-06T11:28:44.872Z,0.90
2018-05-06T11:31:15.023Z,0.80
2018-05-06T11:33:46.756Z,0.90
2018-05-06T11:36:16.741Z,0.83
2018-05-06T11:38:44.955Z,0.70
2018-05-06T11:41:23.948Z,0.90
2018-05-06T11:43:55.767Z,0.90
2018-05-06T11:46:24.763Z,0.70
2018-05-06T11:48:53.894Z,1.30
2018-05-06T11:51:22.362Z,1.00
2018-05-06T11:53:50.441Z,0.90
2018-05-06T11:56:18.605Z,1.10
2018-05-06T11:58:46.614Z,0.90
2018-05-06T12:01:14.731Z,1.40
2018-05-06T12:03:42.906Z,0.90
2018-05-06T12:06:11.918Z,1.00
2018-05-06T12:08:42.634Z,1.00
2018-05-06T12:11:12.765Z,1.30
2018-05-06T12:13:40.872Z,1.60
2018-05-06T12:16:09.738Z,1.00
2018-05-06T12:18:37.841Z,1.10
2018-05-06T12:21:05.948Z,1.30
2018-05-06T12:23:38.509Z,0.90
2018-05-06T12:26:06.557Z,1.20
2018-05-06T12:28:41.202Z,1.00
2018-05-06T12:31:11.242Z,1.00
2018-05-06T12:33:39.385Z,0.90
2018-05-06T12:36:07.470Z,1.00
2018-05-06T12:38:36.342Z,1.30
2018-05-06T12:41:04.424Z,1.10
2018-05-06T12:43:40.223Z,1.23
2018-05-06T12:46:09.430Z,1.17
2018-05-06T12:48:37.529Z,1.33
2018-05-06T12:51:05.663Z,1.50
2018-05-06T12:53:34.722Z,1.23
2018-05-06T12:56:07.417Z,1.10
2018-05-06T12:58:35.529Z,0.93
2018-05-06T13:01:04.402Z,0.80
2018-05-06T13:03:32.539Z,0.93
2018-05-06T13:06:01.666Z,1.40
2018-05-06T13:08:30.592Z,0.80
2018-05-06T13:11:05.953Z,0.97
2018-05-06T13:13:41.703Z,1.40
2018-05-06T13:16:10.591Z,1.10
2018-05-06T13:18:39.327Z,1.00
2018-05-06T13:21:07.481Z,1.20
2018-05-06T13:23:42.812Z,1.10
2018-05-06T13:26:11.970Z,1.00
2018-05-06T13:28:41.089Z,0.90
2018-05-06T13:31:09.558Z,1.10
2018-05-06T13:33:38.611Z,0.90
2018-05-06T13:36:14.963Z,1.00
2018-05-06T13:38:43.493Z,1.07
2018-05-06T13:41:11.579Z,1.10
2018-05-06T13:43:39.737Z,1.20
2018-05-06T13:46:07.860Z,1.30
2018-05-06T13:48:37.060Z,0.93
2018-05-06T13:51:05.198Z,1.10
2018-05-06T13:53:33.327Z,1.13
2018-05-06T13:56:06.943Z,1.10
2018-05-06T14:01:04.284Z,1.30
2018-05-06T14:03:36.254Z,0.90
2018-05-06T14:06:14.993Z,1.00
2018-05-06T14:08:43.140Z,1.30
2018-05-06T14:11:19.754Z,1.00
2018-05-06T14:13:47.899Z,1.20
2018-05-06T14:16:18.631Z,1.10
2018-05-06T14:18:49.833Z,1.00
2018-05-06T14:21:18.989Z,1.00
2018-05-06T14:23:47.109Z,2.20
2018-05-06T14:26:19.307Z,2.03
2018-05-06T14:28:51.095Z,2.00
2018-05-06T14:31:23.270Z,1.00
2018-05-06T14:33:51.483Z,1.43
2018-05-06T14:36:26.909Z,1.50
2018-05-06T14:38:55.050Z,1.10
2018-05-06T14:41:23.255Z,1.00
2018-05-06T14:43:53.101Z,1.20
2018-05-06T14:49:24.396Z,1.20
2018-05-06T14:51:52.486Z,1.60
2018-05-06T14:54:21.411Z,1.07
2018-05-06T14:56:51.513Z,0.90
2018-05-06T14:59:20.393Z,1.20
2018-05-06T15:01:49.339Z,0.80
2018-05-06T15:04:18.332Z,1.80
2018-05-06T15:06:46.527Z,1.40
2018-05-06T15:09:14.643Z,1.00
2018-05-06T15:11:43.763Z,1.00
2018-05-06T15:14:11.857Z,1.00
2018-05-06T15:16:40.420Z,0.70
2018-05-06T15:19:09.167Z,1.03
2018-05-06T15:21:37.813Z,1.20
2018-05-06T15:24:06.911Z,1.13
2018-05-06T15:26:35.025Z,1.10
2018-05-06T15:29:04.978Z,0.70
2018-05-06T15:31:38.483Z,0.83
2018-05-06T15:34:12.459Z,0.90
2018-05-06T15:36:47.029Z,0.90
2018-05-06T15:39:15.164Z,1.10
2018-05-06T15:41:43.380Z,1.00
2018-05-06T15:44:11.585Z,1.17
2018-05-06T15:46:39.647Z,0.77
2018-05-06T15:49:07.750Z,0.70
2018-05-06T15:51:35.865Z,1.40
2018-05-06T15:54:05.499Z,1.07
2018-05-06T15:56:42.012Z,0.77
2018-05-06T15:59:21.741Z,1.00
2018-05-06T16:02:02.575Z,0.97
2018-05-06T16:04:30.680Z,1.37
2018-05-06T16:06:59.752Z,1.03
2018-05-06T16:09:31.456Z,1.30
2018-05-06T16:11:59.640Z,0.80
2018-05-06T16:14:31.995Z,1.03
2018-05-06T16:17:23.629Z,1.20
2018-05-06T16:19:52.720Z,0.90
2018-05-06T16:22:25.912Z,0.80
2018-05-06T16:25:00.154Z,1.10
2018-05-06T16:27:32.311Z,1.00
2018-05-06T16:30:00.944Z,0.80
2018-05-06T16:32:29.050Z,0.93
2018-05-06T16:34:58.106Z,0.80
2018-05-06T16:37:26.194Z,1.27
2018-05-06T16:39:54.313Z,0.87
2018-05-06T16:42:22.398Z,0.80
2018-05-06T16:44:52.413Z,0.90
2018-05-06T16:47:20.735Z,1.00
2018-05-06T16:49:48.873Z,0.90
2018-05-06T16:52:16.988Z,0.97
2018-05-06T16:54:48.732Z,1.00
2018-05-06T16:57:16.929Z,0.83
2018-05-06T16:59:48.995Z,2.07
2018-05-06T17:02:17.095Z,1.00
2018-05-06T17:04:46.325Z,1.07
2018-05-06T17:07:14.391Z,0.80
2018-05-06T17:09:42.488Z,0.93
2018-05-06T17:12:21.265Z,1.07
2018-05-06T17:14:53.184Z,0.83
2018-05-06T17:17:22.284Z,0.70
2018-05-06T17:19:54.856Z,1.00
2018-05-06T17:22:22.959Z,0.90
2018-05-06T17:24:51.067Z,1.30
2018-05-06T17:27:19.557Z,0.90
2018-05-06T17:29:48.652Z,0.90
2018-05-06T17:32:20.129Z,1.03
2018-05-06T17:34:52.111Z,1.30
2018-05-06T17:37:22.218Z,0.90
2018-05-06T17:39:50.325Z,1.17
2018-05-06T17:42:23.092Z,1.23
2018-05-06T17:44:51.556Z,1.30
2018-05-06T17:47:19.658Z,1.00
2018-05-06T17:49:50.998Z,0.93
2018-05-06T17:52:19.111Z,1.27
2018-05-06T17:54:50.644Z,1.20
2018-05-06T17:57:22.415Z,1.20
2018-05-06T17:59:51.927Z,1.40
2018-05-06T18:02:22.142Z,2.20
2018-05-06T18:04:52.120Z,1.20
2018-05-06T18:07:20.228Z,1.20
2018-05-06T18:09:48.316Z,1.10
2018-05-06T18:12:16.437Z,1.40
2018-05-06T18:14:51.780Z,1.30
2018-05-06T18:17:21.684Z,1.10
2018-05-06T18:20:03.933Z,1.30
2018-05-06T18:22:33.091Z,1.40
2018-05-06T18:25:01.118Z,1.20
2018-05-06T18:27:29.223Z,0.97
2018-05-06T18:29:58.082Z,1.23
2018-05-06T18:32:30.680Z,1.63
2018-05-06T18:35:00.037Z,1.20
2018-05-06T18:37:36.756Z,2.20
2018-05-06T18:40:05.760Z,1.60
2018-05-06T18:42:34.773Z,1.70
2018-05-06T18:45:22.011Z,1.30
2018-05-06T18:47:50.379Z,1.50
2018-05-06T18:50:18.467Z,1.20
2018-05-06T18:52:49.965Z,1.53
2018-05-06T18:55:18.039Z,1.40
2018-05-06T18:57:49.295Z,1.40
2018-05-06T19:00:22.172Z,1.17
2018-05-06T19:02:50.269Z,1.40
2018-05-06T19:05:18.397Z,1.70
2018-05-06T19:07:46.483Z,1.40
2018-05-06T19:10:22.549Z,1.60
2018-05-06T19:12:51.600Z,1.43
2018-05-06T19:15:20.581Z,1.70
2018-05-06T19:17:52.217Z,1.50
2018-05-06T19:20:20.374Z,1.33
2018-05-06T19:22:51.505Z,1.63
2018-05-06T19:25:19.603Z,1.37
2018-05-06T19:27:52.312Z,1.70
2018-05-06T19:30:24.572Z,1.70
2018-05-06T19:32:52.847Z,1.70
2018-05-06T19:35:21.700Z,1.60
2018-05-06T19:37:52.815Z,1.93
2018-05-06T19:40:22.849Z,1.80
2018-05-06T19:42:50.946Z,1.80
2018-05-06T19:45:19.036Z,1.70
2018-05-06T19:47:47.144Z,2.43
2018-05-06T19:50:15.260Z,1.90
2018-05-06T19:52:43.393Z,2.00
2018-05-06T19:55:11.509Z,1.53
2018-05-06T19:57:39.669Z,1.57
2018-05-06T20:00:16.588Z,1.80
2018-05-06T20:02:44.687Z,1.50
2018-05-06T20:05:13.569Z,1.93
2018-05-06T20:07:41.683Z,2.07
2018-05-06T20:10:09.792Z,2.10
2018-05-06T20:12:37.919Z,2.00
2018-05-06T20:15:06.000Z,1.80
2018-05-06T20:17:34.908Z,2.07
2018-05-06T20:20:03.542Z,1.80
2018-05-06T20:22:40.657Z,2.10
2018-05-06T20:25:24.624Z,2.37
2018-05-06T20:27:57.255Z,1.60
2018-05-06T20:30:27.339Z,1.80
2018-05-06T20:33:02.062Z,2.07
2018-05-06T20:35:31.153Z,2.20
2018-05-06T20:38:01.646Z,2.00
2018-05-06T20:40:29.763Z,2.00
2018-05-06T20:42:58.614Z,2.60
2018-05-06T20:45:26.754Z,2.10
2018-05-06T20:47:55.787Z,2.53
2018-05-06T20:50:23.866Z,2.07
2018-05-06T20:52:52.728Z,2.17
2018-05-06T20:55:25.793Z,2.10
2018-05-06T20:57:53.882Z,2.00
2018-05-06T21:00:22.164Z,2.00
2018-05-06T21:02:50.266Z,2.13
2018-05-06T21:05:18.523Z,2.03
2018-05-06T21:07:49.268Z,1.93
2018-05-06T21:10:19.302Z,2.00
2018-05-06T21:12:47.385Z,2.00
2018-05-06T21:15:15.784Z,2.10
2018-05-06T21:17:44.768Z,2.40
2018-05-06T21:20:12.857Z,2.30
2018-05-06T21:22:41.538Z,2.10
2018-05-06T21:25:10.546Z,2.60
2018-05-06T21:27:38.652Z,2.37
2018-05-06T21:30:06.742Z,2.47
2018-05-06T21:32:34.838Z,2.40
2018-05-06T21:35:03.724Z,2.33
2018-05-06T21:37:31.813Z,2.53
2018-05-06T21:40:00.894Z,2.30
2018-05-06T21:42:38.786Z,2.17
2018-05-06T21:45:10.724Z,2.30
2018-05-06T21:47:38.793Z,2.27
2018-05-06T21:50:07.861Z,2.50
2018-05-06T21:52:37.935Z,2.57
2018-05-06T21:55:06.045Z,2.23
2018-05-06T21:57:38.098Z,2.50
2018-05-06T22:00:10.995Z,2.50
2018-05-06T22:02:39.901Z,2.30
2018-05-06T22:05:11.124Z,2.13
2018-05-06T22:07:43.934Z,2.37
2018-05-06T22:10:12.032Z,2.60
2018-05-06T22:12:40.922Z,2.57
2018-05-06T22:15:08.991Z,2.00
2018-05-06T22:17:37.074Z,2.60
2018-05-06T22:20:06.103Z,2.40
2018-05-06T22:22:46.620Z,2.10
2018-05-06T22:25:14.755Z,2.90
2018-05-06T22:27:43.756Z,2.40
2018-05-06T22:30:13.858Z,3.17
2018-05-06T22:32:45.937Z,2.93
2018-05-06T22:35:20.661Z,2.57
2018-05-06T22:37:49.429Z,2.07
2018-05-06T22:40:18.283Z,2.77
2018-05-06T22:42:46.413Z,2.37
2018-05-06T22:45:27.798Z,2.37
2018-05-06T22:47:56.933Z,2.80
2018-05-06T22:50:49.358Z,2.50
2018-05-06T22:53:23.807Z,2.27
2018-05-06T22:55:51.884Z,2.73
2018-05-06T22:58:20.036Z,2.67
2018-05-06T23:00:48.109Z,2.10
2018-05-06T23:03:17.004Z,2.20
2018-05-06T23:05:45.109Z,2.60
2018-05-06T23:08:14.155Z,3.00
2018-05-06T23:10:42.245Z,2.70
2018-05-06T23:13:11.165Z,2.37
2018-05-06T23:15:40.200Z,2.60
2018-05-06T23:18:09.065Z,3.00
2018-05-06T23:20:39.145Z,2.40
2018-05-06T23:23:07.265Z,2.60
2018-05-06T23:25:35.380Z,2.60
2018-05-06T23:28:04.415Z,2.67
2018-05-06T23:30:35.461Z,2.53
2018-05-06T23:33:04.315Z,2.47
2018-05-06T23:35:33.460Z,2.40
2018-05-06T23:38:03.198Z,2.63
2018-05-06T23:40:32.201Z,2.70
2018-05-06T23:43:08.251Z,2.50
2018-05-06T23:45:36.345Z,2.60
2018-05-06T23:48:06.394Z,2.80
2018-05-06T23:50:41.403Z,2.67
2018-05-06T23:53:10.465Z,2.37
2018-05-06T23:55:39.318Z,2.60
2018-05-06T23:58:08.363Z,2.80
